Terminal Aerodrome Forecast
Issued by NWS

Home | Current Version | Previous Version | Graphics & Text | Print | Product List | Glossary On
Versions: 1 2 3 4 5 6 7 8 9 10 11 12 13 14 15 16 17 18 19 20
493
FTUS43 KMPX 051120
TAFRNH
TAF
KRNH 051120Z 0512/0612 00000KT P6SM FEW150
     FM051500 17006KT P6SM OVC090
     FM051900 18008KT P6SM OVC040
      TEMPO 0521/0601 6SM -SN OVC025
     FM060100 28005KT P6SM BKN025
     FM060600 27005KT P6SM FEW050=

USA.gov is the U.S. government's official web portal to all federal, state and local government web resources and services.